Hickman, California
Current Conditions -  °F | °C
As of 9:53 PM on Saturday 22 Nov 2014 (Local Time) from KMOD Reporting Station
Haze Haze  
Wind Chill: 50°   Ceiling: Unl
Heat Index: 50°   Visibility: 1.5mi
Dew Point: 48°   Wind: 7mph
Humidity: 93%   Direction: 310°NW
Pressure: 30.2"   Gusts: NA
Location:  37.62°N, 120.75°W
Report Text: KMOD 230553Z AUTO 31006KT 1 1/2SM BR CLR 10/09 A3020 RMK AO2 SLP226 T01000089 10156 20100 51016 $
Loading
Personal Weather Stations






























Interactive Weather Map New forecast layout! Learn more

10-Day Weather Forecast

Advertisements
Track Severe Weather on mobile